Time;durP1;ratioP1;P1;durP2;ratioP2;P2;SDS_P1;SDS_P2;PMS_P1;PMS_P2;Temp;Humidity;BMP_temperature;BMP_pressure;BME280_temperature;BME280_humidity;BME280_pressure;Samples;Min_cycle;Max_cycle;Signal;HPM_P1;HPM_P2
2021/01/28 00:01:30;;;;;;;0.90;0.57;;;21.00;67.90;;;;;;5022667;28;95392;-44
2021/01/28 00:04:02;;;;;;;0.73;0.40;;;21.00;67.90;;;;;;5009584;28;101924;-44
2021/01/28 00:06:34;;;;;;;0.40;0.40;;;21.00;67.90;;;;;;5008740;28;95666;-44
2021/01/28 00:09:05;;;;;;;0.40;0.40;;;21.10;67.80;;;;;;5017129;27;96446;-46
2021/01/28 00:11:37;;;;;;;1.05;0.50;;;21.10;67.90;;;;;;5016581;28;99527;-44
2021/01/28 00:14:08;;;;;;;;;;;21.10;67.90;;;;;;5015717;28;95757;-44
2021/01/28 00:16:38;;;;;;;0.52;0.52;;;21.10;67.80;;;;;;5026803;28;95783;-44
2021/01/28 00:19:10;;;;;;;0.40;0.30;;;21.10;67.80;;;;;;5023936;27;95969;-44
2021/01/28 00:21:41;;;;;;;1.13;0.50;;;21.10;67.80;;;;;;5014486;27;95589;-44
2021/01/28 00:24:12;;;;;;;1.10;0.43;;;21.20;68.00;;;;;;5024021;27;95953;-46
2021/01/28 00:26:43;;;;;;;0.73;0.38;;;21.10;67.90;;;;;;5016527;27;95676;-44
2021/01/28 00:29:12;;;;;;;1.55;0.63;;;21.20;67.80;;;;;;5023402;28;96036;-44
2021/01/28 00:31:42;;;;;;;1.48;0.50;;;21.20;67.70;;;;;;5017069;28;98321;-44
2021/01/28 00:34:13;;;;;;;1.00;0.30;;;21.20;67.70;;;;;;5022586;28;95551;-44
2021/01/28 00:36:44;;;;;;;0.65;0.40;;;21.30;67.80;;;;;;5011035;28;97597;-45
2021/01/28 00:39:14;;;;;;;0.93;0.30;;;21.30;67.80;;;;;;5013220;28;95800;-44
2021/01/28 00:41:45;;;;;;;0.30;0.30;;;21.30;67.70;;;;;;5008875;27;95466;-45
2021/01/28 00:44:18;;;;;;;0.90;0.45;;;21.30;67.80;;;;;;5018730;27;95242;-44
2021/01/28 00:46:48;;;;;;;1.13;0.68;;;21.30;67.70;;;;;;5017285;27;96870;-44
2021/01/28 00:49:22;;;;;;;0.50;0.50;;;21.30;67.60;;;;;;5014865;27;96362;-45
2021/01/28 00:51:55;;;;;;;0.60;0.50;;;21.30;67.70;;;;;;5007225;27;95445;-44
2021/01/28 00:54:24;;;;;;;0.73;0.43;;;21.30;67.70;;;;;;5011308;28;96128;-44
2021/01/28 00:56:54;;;;;;;0.50;0.50;;;21.40;67.70;;;;;;5011600;27;96181;-44
2021/01/28 00:59:26;;;;;;;0.50;0.50;;;21.40;67.70;;;;;;5022019;28;96693;-44
2021/01/28 01:01:57;;;;;;;0.28;0.28;;;21.40;67.60;;;;;;5018487;27;97466;-44
2021/01/28 01:04:28;;;;;;;0.35;0.35;;;21.40;67.60;;;;;;5017692;28;95585;-43
2021/01/28 01:06:58;;;;;;;0.95;0.40;;;21.40;67.50;;;;;;5014706;27;98437;-45
2021/01/28 01:09:29;;;;;;;1.08;0.43;;;21.40;67.50;;;;;;5017857;27;95884;-44
2021/01/28 01:12:00;;;;;;;0.43;0.40;;;21.40;67.50;;;;;;5008333;27;95957;-44
2021/01/28 01:14:31;;;;;;;;;;;21.50;67.60;;;;;;5053089;27;95733;-44
2021/01/28 01:17:03;;;;;;;0.47;0.40;;;21.50;67.60;;;;;;5025263;27;96131;-44
2021/01/28 01:19:36;;;;;;;1.05;0.70;;;21.50;67.50;;;;;;5059549;27;96742;-45
2021/01/28 01:22:11;;;;;;;0.30;0.30;;;21.50;67.50;;;;;;5012422;27;95923;-44
2021/01/28 01:24:44;;;;;;;0.85;0.63;;;21.50;67.50;;;;;;5006756;27;95430;-48
2021/01/28 01:27:13;;;;;;;;;;;21.50;67.40;;;;;;5010509;27;95437;-44
2021/01/28 01:29:43;;;;;;;0.50;0.50;;;21.50;67.40;;;;;;5016691;28;96026;-44
2021/01/28 01:32:19;;;;;;;0.82;0.52;;;21.50;67.40;;;;;;5013244;27;97426;-44
2021/01/28 01:35:10;;;;;;;0.82;0.47;;;21.60;67.60;;;;;;5024640;27;95793;-44
2021/01/28 01:37:43;;;;;;;1.45;0.40;;;21.60;67.50;;;;;;5018647;27;96369;-44
2021/01/28 01:40:26;;;;;;;0.70;0.40;;;21.60;67.50;;;;;;5020554;28;96104;-44
2021/01/28 01:42:59;;;;;;;1.33;0.68;;;21.60;67.50;;;;;;5013039;27;95509;-44
2021/01/28 01:45:36;;;;;;;0.70;0.57;;;21.60;67.40;;;;;;5010400;28;95869;-44
2021/01/28 01:48:15;;;;;;;0.73;0.47;;;21.60;67.40;;;;;;5018690;28;95265;-44
2021/01/28 01:50:57;;;;;;;0.50;0.50;;;21.60;67.30;;;;;;5031107;27;98122;-45
2021/01/28 01:53:35;;;;;;;1.52;0.60;;;21.70;67.30;;;;;;5015595;27;97488;-44
2021/01/28 01:56:13;;;;;;;1.13;0.30;;;21.70;67.40;;;;;;5003702;28;96168;-45
2021/01/28 01:58:53;;;;;;;0.77;0.50;;;21.70;67.30;;;;;;4998471;28;95983;-45
2021/01/28 02:01:51;;;;;;;1.30;0.60;;;21.70;67.40;;;;;;5012716;28;95676;-44
2021/01/28 02:04:43;;;;;;;1.00;0.40;;;21.70;67.30;;;;;;5011779;28;95812;-44
2021/01/28 02:07:50;;;;;;;1.27;0.55;;;21.70;67.30;;;;;;4939555;28;95397;-44
2021/01/28 02:10:47;;;;;;;0.85;0.25;;;21.70;67.30;;;;;;4983448;28;95811;-44
2021/01/28 02:13:56;;;;;;;0.88;0.60;;;21.70;67.20;;;;;;5008810;27;103072;-44
2021/01/28 02:16:59;;;;;;;1.48;0.50;;;21.70;67.20;;;;;;5019374;28;95722;-44
2021/01/28 02:19:53;;;;;;;0.30;0.30;;;21.80;67.30;;;;;;5017466;28;96200;-44
2021/01/28 02:22:33;;;;;;;0.95;0.30;;;21.80;67.20;;;;;;5031747;27;95466;-43
2021/01/28 02:25:20;;;;;;;1.88;0.68;;;21.80;67.20;;;;;;5030101;27;101309;-43
2021/01/28 02:27:51;;;;;;;2.15;0.40;;;21.80;67.20;;;;;;5036907;27;95985;-44
2021/01/28 02:30:58;;;;;;;0.60;0.60;;;21.80;67.20;;;;;;5002758;28;95408;-44
2021/01/28 02:33:48;;;;;;;1.25;0.47;;;21.80;67.10;;;;;;5044447;27;95691;-44
2021/01/28 02:36:36;;;;;;;0.73;0.45;;;21.80;67.10;;;;;;4995033;28;101345;-44
2021/01/28 02:39:27;;;;;;;0.30;0.30;;;21.90;67.20;;;;;;5005645;27;95917;-44
2021/01/28 02:42:24;;;;;;;1.27;0.50;;;21.90;67.20;;;;;;5028273;27;95464;-44
2021/01/28 02:45:07;;;;;;;0.80;0.50;;;21.80;67.10;;;;;;5024576;27;96425;-44
2021/01/28 02:48:09;;;;;;;0.40;0.40;;;21.90;67.20;;;;;;5031008;27;96109;-45
2021/01/28 02:50:46;;;;;;;1.55;0.73;;;21.90;67.20;;;;;;5027557;27;97224;-44
2021/01/28 02:53:19;;;;;;;0.75;0.60;;;21.90;67.20;;;;;;5006504;28;96032;-44
2021/01/28 02:55:51;;;;;;;1.13;0.65;;;21.90;67.20;;;;;;5003552;27;95883;-45
2021/01/28 02:58:21;;;;;;;1.95;0.77;;;21.90;67.20;;;;;;5051680;27;98470;-44
2021/01/28 03:01:09;;;;;;;1.85;0.50;;;22.00;67.20;;;;;;5011410;27;96170;-45
2021/01/28 03:03:44;;;;;;;2.65;0.52;;;22.00;67.20;;;;;;4996484;28;95816;-45
2021/01/28 03:06:16;;;;;;;0.38;0.35;;;22.00;67.30;;;;;;5026440;27;96035;-45
2021/01/28 03:09:07;;;;;;;0.85;0.70;;;22.00;67.20;;;;;;5015820;27;96003;-45
2021/01/28 03:11:46;;;;;;;1.48;0.68;;;22.00;67.20;;;;;;5017237;28;95605;-44
2021/01/28 03:14:41;;;;;;;1.42;0.60;;;22.00;67.20;;;;;;4980796;28;95260;-44
2021/01/28 03:17:14;;;;;;;0.98;0.50;;;22.00;67.20;;;;;;5028828;27;97013;-44
2021/01/28 03:19:50;;;;;;;0.75;0.68;;;22.00;67.20;;;;;;5037103;27;96108;-45
2021/01/28 03:22:22;;;;;;;0.30;0.30;;;22.00;67.20;;;;;;5032839;27;95965;-44
2021/01/28 03:25:26;;;;;;;0.98;0.30;;;22.10;67.20;;;;;;4951673;28;95936;-44
2021/01/28 03:27:57;;;;;;;0.52;0.45;;;22.10;67.80;;;;;;5040467;27;95844;-44
2021/01/28 03:30:43;;;;;;;1.02;0.70;;;22.10;67.20;;;;;;5005586;28;96426;-44
2021/01/28 03:33:18;;;;;;;0.88;0.55;;;22.10;67.20;;;;;;5024690;28;96045;-44
2021/01/28 03:35:50;;;;;;;0.50;0.40;;;22.10;67.10;;;;;;4995697;28;95888;-44
2021/01/28 03:38:21;;;;;;;0.98;0.43;;;22.20;67.10;;;;;;5032157;27;99191;-44
2021/01/28 03:40:56;;;;;;;0.75;0.52;;;22.10;66.90;;;;;;5007098;28;97954;-44
2021/01/28 03:43:30;;;;;;;0.80;0.47;;;22.20;67.00;;;;;;5020825;28;95749;-44
2021/01/28 03:46:03;;;;;;;0.20;0.20;;;22.20;67.00;;;;;;5023538;27;95730;-44
2021/01/28 03:48:43;;;;;;;1.10;0.38;;;22.20;67.00;;;;;;5015705;27;95806;-44
2021/01/28 03:51:36;;;;;;;1.55;0.73;;;22.20;67.00;;;;;;5014510;28;96100;-45
2021/01/28 03:54:28;;;;;;;0.45;0.40;;;22.20;67.00;;;;;;5012841;28;95542;-46
2021/01/28 03:57:08;;;;;;;0.70;0.50;;;22.30;66.90;;;;;;5016793;28;95285;-45
2021/01/28 03:59:49;;;;;;;;;;;22.30;66.90;;;;;;5035059;27;95834;-44
2021/01/28 04:02:41;;;;;;;1.08;0.50;;;22.30;66.90;;;;;;5020410;27;96303;-45
2021/01/28 04:05:34;;;;;;;0.60;0.60;;;22.30;66.90;;;;;;5001251;28;95878;-44
2021/01/28 04:08:05;;;;;;;0.65;0.47;;;22.30;66.80;;;;;;5008911;28;95688;-44
2021/01/28 04:10:52;;;;;;;1.13;0.70;;;22.30;66.80;;;;;;4994433;28;95462;-44
2021/01/28 04:13:24;;;;;;;0.57;0.57;;;22.30;66.80;;;;;;5013923;27;102578;-44
2021/01/28 04:15:55;;;;;;;0.50;0.50;;;22.30;66.80;;;;;;5002013;28;95816;-46
2021/01/28 04:18:28;;;;;;;1.90;0.60;;;22.40;66.90;;;;;;4999879;28;95898;-44
2021/01/28 04:21:17;;;;;;;0.73;0.40;;;22.40;67.00;;;;;;4995415;28;95942;-44
2021/01/28 04:23:48;;;;;;;2.70;0.53;;;22.40;66.90;;;;;;5008418;28;96162;-44
2021/01/28 04:26:38;;;;;;;0.93;0.50;;;22.40;66.80;;;;;;5017567;28;96083;-44
2021/01/28 04:29:08;;;;;;;1.33;0.77;;;22.40;66.80;;;;;;4992179;28;97839;-44
2021/01/28 04:31:45;;;;;;;0.68;0.40;;;22.40;66.70;;;;;;5020338;28;95423;-44
2021/01/28 04:34:31;;;;;;;0.43;0.43;;;22.50;66.70;;;;;;5000516;28;96433;-44
2021/01/28 04:37:12;;;;;;;1.20;0.65;;;22.40;66.60;;;;;;5004026;28;95987;-44
2021/01/28 04:40:16;;;;;;;1.48;0.70;;;22.50;66.70;;;;;;5008787;27;95356;-44
2021/01/28 04:42:50;;;;;;;0.88;0.52;;;22.50;66.70;;;;;;4996126;28;95654;-44
2021/01/28 04:45:29;;;;;;;0.55;0.55;;;22.50;66.60;;;;;;5000647;28;97986;-44
2021/01/28 04:48:04;;;;;;;0.47;0.47;;;22.50;66.60;;;;;;4997093;28;97386;-45
2021/01/28 04:51:06;;;;;;;0.50;0.50;;;22.50;66.60;;;;;;5000219;28;95569;-44
2021/01/28 04:53:59;;;;;;;1.02;0.60;;;22.50;66.70;;;;;;4994755;28;95778;-46
2021/01/28 04:56:39;;;;;;;0.50;0.50;;;22.50;66.60;;;;;;5005929;28;96169;-45
2021/01/28 04:59:32;;;;;;;0.80;0.50;;;22.50;66.60;;;;;;4995649;28;96258;-45
2021/01/28 05:02:08;;;;;;;0.68;0.60;;;22.50;66.60;;;;;;4994721;28;95937;-44
2021/01/28 05:05:07;;;;;;;1.23;0.60;;;22.60;66.70;;;;;;5005524;27;95793;-48
2021/01/28 05:08:16;;;;;;;0.75;0.63;;;22.60;66.60;;;;;;5013651;28;95839;-46
2021/01/28 05:11:21;;;;;;;3.17;0.55;;;22.60;66.60;;;;;;4988140;27;96070;-44
2021/01/28 05:14:22;;;;;;;3.83;1.05;;;22.60;66.60;;;;;;5016367;28;95703;-45
2021/01/28 05:17:31;;;;;;;0.95;0.95;;;22.60;66.50;;;;;;4989501;28;96204;-48
2021/01/28 05:20:23;;;;;;;4.00;1.35;;;22.60;66.60;;;;;;4997111;27;98003;-46
2021/01/28 05:23:34;;;;;;;1.98;1.02;;;22.50;66.20;;;;;;4996905;28;96257;-46
2021/01/28 05:26:37;;;;;;;2.17;1.05;;;22.60;66.40;;;;;;5019208;28;95783;-46
2021/01/28 05:29:24;;;;;;;4.43;1.33;;;22.40;66.80;;;;;;5019025;27;95927;-46
2021/01/28 05:32:17;;;;;;;2.67;1.02;;;22.50;67.10;;;;;;5018509;27;95955;-48
2021/01/28 05:35:28;;;;;;;2.53;1.10;;;22.50;66.80;;;;;;5010370;27;96231;-47
2021/01/28 05:38:18;;;;;;;3.13;1.40;;;22.60;67.20;;;;;;5012487;27;95718;-48
2021/01/28 05:41:25;;;;;;;3.13;1.30;;;22.60;66.70;;;;;;5002246;28;96314;-47
2021/01/28 05:43:56;;;;;;;2.47;1.02;;;22.60;66.80;;;;;;4999755;28;96664;-45
2021/01/28 05:46:34;;;;;;;3.45;1.20;;;22.60;66.90;;;;;;4992570;28;96992;-46
2021/01/28 05:49:43;;;;;;;4.30;1.30;;;22.70;65.70;;;;;;4971396;28;96115;-46
2021/01/28 05:52:30;;;;;;;2.05;1.20;;;22.60;66.60;;;;;;4993432;28;95919;-45
2021/01/28 05:55:17;;;;;;;2.95;1.15;;;22.50;65.60;;;;;;4999691;28;96213;-46
2021/01/28 05:58:00;;;;;;;3.33;1.13;;;22.60;66.50;;;;;;5000299;27;96760;-47
2021/01/28 06:00:45;;;;;;;4.75;1.25;;;22.60;66.80;;;;;;5002796;28;95956;-46
2021/01/28 06:03:49;;;;;;;4.72;1.00;;;22.70;66.10;;;;;;5000190;28;95833;-45
2021/01/28 06:07:30;;;;;;;5.15;1.02;;;22.60;66.30;;;;;;5020929;27;95800;-47
2021/01/28 06:10:36;;;;;;;2.72;0.85;;;22.70;66.10;;;;;;4994190;28;95863;-46
2021/01/28 06:13:56;;;;;;;7.18;1.48;;;22.60;65.60;;;;;;4995992;27;96699;-46
2021/01/28 06:17:12;;;;;;;4.88;1.50;;;22.60;65.90;;;;;;5020654;27;95791;-47
2021/01/28 06:20:37;;;;;;;4.60;1.52;;;22.60;66.00;;;;;;5002593;27;96452;-44
2021/01/28 06:23:36;;;;;;;7.85;1.25;;;22.70;66.30;;;;;;5030368;27;95873;-45
2021/01/28 06:26:37;;;;;;;6.50;1.30;;;22.60;65.60;;;;;;4978744;27;96178;-45
2021/01/28 06:29:49;;;;;;;2.05;1.17;;;22.60;65.80;;;;;;4997963;28;96727;-44
2021/01/28 06:32:48;;;;;;;3.15;1.35;;;22.70;66.00;;;;;;5001148;28;98182;-45
2021/01/28 06:36:04;;;;;;;4.28;1.20;;;22.70;65.80;;;;;;4989806;27;96204;-45
2021/01/28 06:39:33;;;;;;;3.33;1.35;;;22.80;67.00;;;;;;4931647;28;95563;-44
2021/01/28 06:42:36;;;;;;;3.83;1.20;;;22.80;65.00;;;;;;5018889;27;95548;-45
2021/01/28 06:45:24;;;;;;;2.55;1.17;;;22.70;66.30;;;;;;5017674;27;97721;-43
2021/01/28 06:48:30;;;;;;;3.50;1.45;;;22.80;64.80;;;;;;5017158;28;96623;-45
2021/01/28 06:51:24;;;;;;;5.10;1.30;;;22.80;65.40;;;;;;5013816;27;96046;-45
2021/01/28 06:54:12;;;;;;;4.40;1.27;;;22.80;64.70;;;;;;5018047;28;95849;-44
2021/01/28 06:57:11;;;;;;;7.80;1.48;;;22.80;65.40;;;;;;5015882;27;96422;-46
2021/01/28 07:00:21;;;;;;;5.90;1.63;;;22.80;65.40;;;;;;5010747;28;96137;-44
2021/01/28 07:03:26;;;;;;;2.22;1.52;;;22.80;65.00;;;;;;5033900;27;95807;-45
2021/01/28 07:06:37;;;;;;;5.88;1.65;;;22.70;64.90;;;;;;5000024;27;95330;-45
2021/01/28 07:09:44;;;;;;;4.45;1.40;;;22.70;65.80;;;;;;5032260;27;96133;-44
2021/01/28 07:12:21;;;;;;;1.35;1.08;;;22.70;65.40;;;;;;5000724;28;96823;-45
2021/01/28 07:15:21;;;;;;;5.00;0.90;;;22.70;65.40;;;;;;4968820;28;96830;-44
2021/01/28 07:18:29;;;;;;;2.90;1.35;;;22.60;65.10;;;;;;4997062;28;95566;-42
2021/01/28 07:21:12;;;;;;;3.55;1.42;;;22.50;65.70;;;;;;4995844;27;97287;-46
2021/01/28 07:23:58;;;;;;;4.55;1.10;;;22.60;65.80;;;;;;4999320;28;97704;-45
2021/01/28 07:26:45;;;;;;;4.63;1.40;;;22.50;66.10;;;;;;5015168;27;96216;-45
2021/01/28 07:29:36;;;;;;;2.65;0.90;;;22.50;65.90;;;;;;4999932;28;96475;-44
2021/01/28 07:32:09;;;;;;;5.90;1.67;;;22.50;65.90;;;;;;5014196;27;96005;-45
2021/01/28 07:35:25;;;;;;;8.45;1.85;;;22.50;66.30;;;;;;5008989;28;96431;-47
2021/01/28 07:38:30;;;;;;;4.00;1.40;;;22.40;66.30;;;;;;4936623;28;96319;-46
2021/01/28 07:41:51;;;;;;;5.65;1.25;;;22.40;66.00;;;;;;5003819;27;96084;-46
2021/01/28 07:44:48;;;;;;;4.80;1.50;;;22.30;66.50;;;;;;5008753;28;96436;-45
2021/01/28 07:47:42;;;;;;;9.30;1.50;;;22.30;66.20;;;;;;4996143;28;95523;-43
2021/01/28 07:50:36;;;;;;;10.48;1.70;;;22.30;66.60;;;;;;5025710;27;95945;-44
2021/01/28 07:53:46;;;;;;;3.83;1.40;;;22.30;66.50;;;;;;5016738;28;95389;-45
2021/01/28 07:56:41;;;;;;;4.60;1.88;;;22.30;66.20;;;;;;5019162;28;95950;-45
2021/01/28 07:59:33;;;;;;;8.35;1.30;;;22.20;66.10;;;;;;5019649;28;95626;-44
2021/01/28 08:02:29;;;;;;;5.85;1.15;;;22.20;66.60;;;;;;5020539;27;97536;-45
2021/01/28 08:05:07;;;;;;;2.33;1.23;;;22.10;66.40;;;;;;5020202;27;96235;-45
2021/01/28 08:07:43;;;;;;;4.07;1.50;;;22.10;66.90;;;;;;5015930;28;96251;-45
2021/01/28 08:10:39;;;;;;;5.05;1.00;;;22.10;67.10;;;;;;5022102;28;95744;-44
2021/01/28 08:13:28;;;;;;;5.20;1.20;;;22.10;66.50;;;;;;5034878;27;96198;-45
2021/01/28 08:16:09;;;;;;;4.38;1.38;;;22.10;66.70;;;;;;5023994;28;95734;-45
2021/01/28 08:18:47;;;;;;;5.70;1.80;;;22.10;66.80;;;;;;5020712;28;96009;-45
2021/01/28 08:21:24;;;;;;;5.75;1.42;;;22.00;66.90;;;;;;5020665;27;96263;-46
2021/01/28 08:23:53;;;;;;;4.72;1.40;;;22.00;67.10;;;;;;5014960;28;95873;-45
2021/01/28 08:26:32;;;;;;;4.37;1.60;;;22.00;67.20;;;;;;5022078;27;96836;-45
2021/01/28 08:29:06;;;;;;;8.70;2.13;;;22.00;67.00;;;;;;5019719;28;96482;-46
2021/01/28 08:31:54;;;;;;;28.45;2.75;;;21.90;66.70;;;;;;5022535;28;95713;-49
2021/01/28 08:34:30;;;;;;;19.23;2.75;;;21.90;67.10;;;;;;5021846;28;97116;-45
2021/01/28 08:37:09;;;;;;;5.53;2.05;;;21.90;66.80;;;;;;5001376;28;96426;-45
2021/01/28 08:39:40;;;;;;;5.65;1.95;;;21.90;66.80;;;;;;5011854;27;97556;-46
2021/01/28 08:42:17;;;;;;;5.45;1.30;;;21.90;66.60;;;;;;5020345;28;96514;-43
2021/01/28 08:44:51;;;;;;;4.55;1.50;;;21.90;66.80;;;;;;5019044;27;104479;-44
2021/01/28 08:47:26;;;;;;;4.35;1.40;;;21.80;67.00;;;;;;5016224;28;95604;-46
2021/01/28 08:50:10;;;;;;;6.70;2.00;;;21.70;66.70;;;;;;5012682;28;98780;-44
2021/01/28 08:52:46;;;;;;;5.68;1.60;;;21.50;66.50;;;;;;5009370;28;95784;-45
2021/01/28 08:55:26;;;;;;;14.77;2.80;;;21.50;67.20;;;;;;5007354;27;96919;-45
2021/01/28 08:58:13;;;;;;;11.02;2.17;;;21.40;66.90;;;;;;5008992;28;95830;-45
2021/01/28 09:00:50;;;;;;;8.18;1.92;;;21.40;67.60;;;;;;4995806;28;96332;-44
2021/01/28 09:03:26;;;;;;;5.22;1.38;;;21.40;67.20;;;;;;5012234;28;95914;-44
2021/01/28 09:06:02;;;;;;;4.18;1.42;;;21.40;67.60;;;;;;5010738;28;95952;-43
2021/01/28 09:08:38;;;;;;;6.07;1.50;;;21.30;68.10;;;;;;5015225;28;95867;-46
2021/01/28 09:11:29;;;;;;;7.90;1.30;;;21.40;67.90;;;;;;4988554;28;96207;-45
2021/01/28 09:14:28;;;;;;;7.18;2.10;;;21.30;67.60;;;;;;5007838;28;95277;-45
2021/01/28 09:17:30;;;;;;;5.35;1.83;;;21.20;67.80;;;;;;5013405;27;95803;-47
2021/01/28 09:20:05;;;;;;;7.97;1.88;;;21.20;68.00;;;;;;5009896;27;96300;-45
2021/01/28 09:22:41;;;;;;;5.53;1.70;;;21.10;68.10;;;;;;5009084;28;95842;-44
2021/01/28 09:25:20;;;;;;;7.32;1.80;;;21.10;68.30;;;;;;5014867;28;96138;-44
2021/01/28 09:28:20;;;;;;;6.43;1.38;;;21.00;68.80;;;;;;5003336;28;95847;-46
2021/01/28 09:30:53;;;;;;;3.83;1.55;;;21.00;68.80;;;;;;4998341;28;96505;-45
2021/01/28 09:33:38;;;;;;;8.10;1.73;;;21.00;69.10;;;;;;4995044;28;96932;-46
2021/01/28 09:36:32;;;;;;;1.65;1.10;;;21.00;68.70;;;;;;5011545;27;96659;-46
2021/01/28 09:39:19;;;;;;;4.95;2.03;;;20.90;68.60;;;;;;4991331;28;95617;-44
2021/01/28 09:41:52;;;;;;;15.73;2.78;;;20.90;68.70;;;;;;5015569;28;95263;-46
2021/01/28 09:44:44;;;;;;;5.95;1.33;;;21.00;68.80;;;;;;5017145;28;95829;-46
2021/01/28 09:47:19;;;;;;;14.48;2.38;;;20.90;68.50;;;;;;5013832;27;95871;-47
2021/01/28 09:49:54;;;;;;;19.80;2.67;;;20.80;68.70;;;;;;5011158;28;95817;-46
2021/01/28 09:52:36;;;;;;;8.25;1.83;;;20.80;68.70;;;;;;5005158;28;96015;-44
2021/01/28 09:55:13;;;;;;;7.22;1.38;;;20.80;69.80;;;;;;5000916;27;96011;-47
2021/01/28 09:57:43;;;;;;;5.10;1.52;;;20.70;69.10;;;;;;5004747;27;96190;-44
2021/01/28 10:00:16;;;;;;;4.50;1.38;;;20.70;68.80;;;;;;4988554;28;96370;-48
2021/01/28 10:02:56;;;;;;;4.05;2.05;;;20.70;69.00;;;;;;4985403;28;96198;-46
2021/01/28 10:05:33;;;;;;;5.85;2.00;;;20.60;69.50;;;;;;5004310;28;95899;-45
2021/01/28 10:08:04;;;;;;;4.60;1.50;;;20.60;69.20;;;;;;5003403;28;95755;-45
2021/01/28 10:10:39;;;;;;;4.57;1.60;;;20.60;69.50;;;;;;5002081;27;96025;-46
2021/01/28 10:13:16;;;;;;;5.05;1.98;;;20.60;69.60;;;;;;4998934;28;95544;-45
2021/01/28 10:15:47;;;;;;;6.18;1.92;;;20.50;69.70;;;;;;5009124;28;96564;-45
2021/01/28 10:18:18;;;;;;;8.43;1.75;;;20.60;69.70;;;;;;5007704;28;95800;-45
2021/01/28 10:20:49;;;;;;;6.93;1.65;;;20.60;69.50;;;;;;5006267;28;95829;-45
2021/01/28 10:23:19;;;;;;;5.55;1.50;;;20.60;69.70;;;;;;5006748;28;95692;-45
2021/01/28 10:25:52;;;;;;;4.57;1.77;;;20.60;69.70;;;;;;4979863;28;95869;-45
2021/01/28 10:28:21;;;;;;;10.07;2.88;;;20.60;69.50;;;;;;5003519;28;96077;-45
2021/01/28 10:30:53;;;;;;;11.50;2.30;;;20.60;69.40;;;;;;5005859;27;95711;-45
2021/01/28 10:33:28;;;;;;;9.50;2.60;;;20.60;69.10;;;;;;5007429;27;95760;-45
2021/01/28 10:35:58;;;;;;;5.03;1.50;;;20.60;69.10;;;;;;5004524;28;99034;-46
2021/01/28 10:38:33;;;;;;;3.08;1.48;;;20.60;69.10;;;;;;5005220;28;95847;-45
2021/01/28 10:41:07;;;;;;;5.15;1.80;;;20.60;69.10;;;;;;5017588;28;95532;-45
2021/01/28 10:43:38;;;;;;;5.00;1.30;;;20.60;69.30;;;;;;5013027;27;96329;-45
2021/01/28 10:46:08;;;;;;;6.18;1.40;;;20.50;69.20;;;;;;5014789;27;96500;-46
2021/01/28 10:48:37;;;;;;;10.38;2.22;;;20.50;69.40;;;;;;5005510;28;96372;-45
2021/01/28 10:51:07;;;;;;;5.60;1.50;;;20.40;69.40;;;;;;5007604;28;96124;-45
2021/01/28 10:53:40;;;;;;;6.20;1.60;;;20.50;69.60;;;;;;4999952;28;96333;-45
2021/01/28 10:56:10;;;;;;;5.35;1.85;;;20.40;69.30;;;;;;4994052;28;96381;-46
2021/01/28 10:58:41;;;;;;;11.07;1.75;;;20.40;69.20;;;;;;5009188;27;95495;-45
2021/01/28 11:01:14;;;;;;;5.85;1.23;;;20.50;69.50;;;;;;5016870;28;95788;-46
2021/01/28 11:03:44;;;;;;;8.60;2.38;;;20.50;69.30;;;;;;5017238;28;95926;-45
2021/01/28 11:06:15;;;;;;;8.48;1.55;;;20.50;69.20;;;;;;4988395;28;97938;-45
2021/01/28 11:08:46;;;;;;;7.55;2.40;;;20.50;69.30;;;;;;5007123;28;95897;-45
2021/01/28 11:11:18;;;;;;;5.70;1.85;;;20.50;69.00;;;;;;4996226;27;96216;-45
2021/01/28 11:13:54;;;;;;;5.68;1.40;;;20.50;69.00;;;;;;5005065;28;95910;-45
2021/01/28 11:16:26;;;;;;;23.02;3.35;;;20.50;69.00;;;;;;5006711;28;96677;-45
2021/01/28 11:18:57;;;;;;;6.68;2.25;;;20.50;68.90;;;;;;5005758;28;95822;-45
2021/01/28 11:21:29;;;;;;;4.07;1.30;;;20.50;68.90;;;;;;5009350;28;98008;-48
2021/01/28 11:23:59;;;;;;;6.90;1.97;;;20.50;69.10;;;;;;5007170;28;95679;-45
2021/01/28 11:26:30;;;;;;;9.77;2.20;;;20.50;68.80;;;;;;5002327;28;96325;-45
2021/01/28 11:29:04;;;;;;;6.07;1.75;;;20.40;68.70;;;;;;5005429;28;97820;-45
2021/01/28 11:31:38;;;;;;;9.27;1.88;;;20.40;69.00;;;;;;5001854;27;98258;-45
2021/01/28 11:34:10;;;;;;;6.10;1.75;;;20.40;69.10;;;;;;4998808;27;96054;-45
2021/01/28 11:36:40;;;;;;;6.63;2.05;;;20.40;69.10;;;;;;5002287;27;95941;-45
2021/01/28 11:39:11;;;;;;;5.75;1.40;;;20.30;68.60;;;;;;4995016;28;95903;-45
2021/01/28 11:41:42;;;;;;;6.35;1.58;;;20.40;69.00;;;;;;5006444;27;96005;-45
2021/01/28 11:44:15;;;;;;;6.13;1.60;;;20.30;68.70;;;;;;5011447;28;95826;-45
2021/01/28 11:46:45;;;;;;;7.53;1.90;;;20.30;68.80;;;;;;5012244;27;96622;-46
2021/01/28 11:49:16;;;;;;;4.95;1.70;;;20.20;68.90;;;;;;5019897;28;96853;-46
2021/01/28 11:51:48;;;;;;;6.07;1.70;;;20.20;69.00;;;;;;5012625;28;96909;-47
2021/01/28 11:54:18;;;;;;;6.15;1.85;;;20.20;69.00;;;;;;5017270;28;96474;-48
2021/01/28 11:56:49;;;;;;;7.18;1.80;;;20.10;69.20;;;;;;5004812;27;107489;-46
2021/01/28 11:59:20;;;;;;;2.95;1.40;;;20.10;69.20;;;;;;5007932;27;96043;-46
2021/01/28 12:01:51;;;;;;;4.28;1.40;;;20.10;69.40;;;;;;5009998;28;95860;-48
2021/01/28 12:04:22;;;;;;;10.90;2.10;;;20.10;69.60;;;;;;5020040;27;95972;-45
2021/01/28 12:06:54;;;;;;;6.72;1.73;;;20.00;70.10;;;;;;5013131;27;96516;-46
2021/01/28 12:09:25;;;;;;;7.63;1.50;;;20.00;69.50;;;;;;5016727;28;98377;-45
2021/01/28 12:11:57;;;;;;;7.00;1.88;;;20.00;69.50;;;;;;5008025;27;95438;-46
2021/01/28 12:14:28;;;;;;;6.57;1.38;;;19.90;69.70;;;;;;5012985;28;95716;-45
2021/01/28 12:16:58;;;;;;;8.83;1.53;;;19.90;69.80;;;;;;5001377;27;97367;-45
2021/01/28 12:19:32;;;;;;;9.38;2.05;;;19.80;69.80;;;;;;4999858;28;96593;-45
2021/01/28 12:22:02;;;;;;;6.07;1.73;;;19.70;70.40;;;;;;5004357;27;102215;-44
2021/01/28 12:24:35;;;;;;;5.80;1.77;;;19.70;70.50;;;;;;5033497;27;96948;-45
2021/01/28 12:27:05;;;;;;;8.57;1.27;;;19.70;70.40;;;;;;5006641;28;96845;-42
2021/01/28 12:29:35;;;;;;;7.18;1.95;;;19.70;70.70;;;;;;5006228;28;96780;-42
2021/01/28 12:32:09;;;;;;;6.75;2.22;;;19.70;70.50;;;;;;5008953;28;96440;-42
2021/01/28 12:34:44;;;;;;;4.97;1.40;;;19.60;70.80;;;;;;5006889;28;95881;-43
2021/01/28 12:37:14;;;;;;;6.32;1.90;;;19.50;71.30;;;;;;4999508;28;95989;-42
2021/01/28 12:39:45;;;;;;;;;;;19.50;71.10;;;;;;5000174;27;96182;-42
2021/01/28 12:42:15;;;;;;;7.60;1.67;;;19.50;71.00;;;;;;4972999;28;95931;-43
2021/01/28 12:44:47;;;;;;;6.38;1.70;;;19.50;71.50;;;;;;4995659;28;96165;-43
2021/01/28 12:47:17;;;;;;;8.20;1.63;;;19.50;71.60;;;;;;5017753;28;96013;-43
2021/01/28 12:49:48;;;;;;;6.13;1.35;;;19.40;71.80;;;;;;4998134;28;95884;-43
2021/01/28 12:52:21;;;;;;;8.35;1.70;;;19.40;72.00;;;;;;5012790;28;95786;-43
2021/01/28 12:54:52;;;;;;;3.97;1.23;;;19.40;72.20;;;;;;5007288;27;96089;-43
2021/01/28 12:57:21;;;;;;;6.93;2.05;;;19.30;72.20;;;;;;5011315;28;95852;-45
2021/01/28 12:59:51;;;;;;;3.40;1.30;;;19.30;73.00;;;;;;5008602;27;96418;-43
2021/01/28 13:02:22;;;;;;;7.68;1.60;;;19.30;73.00;;;;;;5002160;27;98263;-43
2021/01/28 13:04:54;;;;;;;5.78;1.65;;;19.30;73.10;;;;;;5003515;28;95884;-44
2021/01/28 13:07:25;;;;;;;;;;;19.20;72.90;;;;;;5003189;28;96069;-43
2021/01/28 13:09:57;;;;;;;9.17;2.30;;;19.20;72.70;;;;;;5011531;27;95833;-43
2021/01/28 13:12:27;;;;;;;6.40;1.13;;;19.20;72.90;;;;;;5008553;27;95450;-43
2021/01/28 13:14:58;;;;;;;4.27;1.70;;;19.20;72.80;;;;;;5005395;27;95839;-43
2021/01/28 13:17:29;;;;;;;4.82;1.13;;;19.20;73.10;;;;;;5007743;28;95861;-43
2021/01/28 13:19:59;;;;;;;4.10;1.60;;;19.10;73.40;;;;;;5005500;27;95734;-43
2021/01/28 13:22:30;;;;;;;17.52;2.38;;;19.10;74.00;;;;;;5008205;28;97965;-43
2021/01/28 13:25:02;;;;;;;4.22;1.05;;;19.00;73.80;;;;;;5004385;28;95727;-44
2021/01/28 13:27:33;;;;;;;11.38;2.75;;;19.00;74.20;;;;;;4996879;28;97978;-44
2021/01/28 13:30:05;;;;;;;6.60;1.70;;;19.00;74.70;;;;;;5014597;27;95817;-44
2021/01/28 13:32:37;;;;;;;2.72;1.30;;;19.10;74.50;;;;;;5015564;28;95858;-44
2021/01/28 13:35:10;;;;;;;7.03;1.50;;;19.00;74.60;;;;;;5014728;27;95620;-42
2021/01/28 13:37:42;;;;;;;4.15;1.30;;;19.00;74.50;;;;;;5020249;27;95909;-44
2021/01/28 13:40:16;;;;;;;5.57;1.38;;;18.90;75.00;;;;;;5005721;28;97487;-43
2021/01/28 13:42:47;;;;;;;5.78;1.70;;;18.90;75.10;;;;;;5013339;28;98121;-43
2021/01/28 13:45:19;;;;;;;6.30;1.25;;;18.80;75.40;;;;;;5009257;28;95550;-42
2021/01/28 13:47:50;;;;;;;4.80;1.85;;;18.80;76.10;;;;;;5020925;28;95890;-43
2021/01/28 13:50:25;;;;;;;3.33;1.80;;;18.90;76.30;;;;;;5026379;28;96002;-42
2021/01/28 13:52:57;;;;;;;9.27;1.67;;;19.20;75.40;;;;;;5001677;28;95634;-43
2021/01/28 13:55:28;;;;;;;4.85;1.30;;;19.40;74.60;;;;;;5006969;28;95729;-43
2021/01/28 13:57:59;;;;;;;4.82;1.35;;;19.60;73.90;;;;;;5010719;27;96399;-42
2021/01/28 14:00:29;;;;;;;2.03;0.70;;;19.80;73.40;;;;;;5005032;28;95869;-44